AFL025 ULLI-UUEE
Flight info
| Callsign | AFL025 |
|---|---|
| Flight time | 0h 59m |
| Altitude | 35000 |
| Route | SUGI1A SUGIN T873 NIRGI T73 NAMIN NAMI3F |
| Aircraft | B738/M-V/N |
Departure
| Time | 2026-05-04 18:10 |
|---|---|
| Airport | Pulkovo Airport (ULLI) |
Arrival
| Time | 2026-05-04 19:10 |
|---|---|
| Airport | Sheremetyevo International Airport (UUEE) |
| Time | Latitude | Longitude | Altitude | Speed | Heading |
|---|---|---|---|---|---|
| 2026-05-04 17:18 | 59.79850 | 30.26722 | 80 ft | 0 kts | 97° |
| 2026-05-04 17:57 | 59.79852 | 30.26690 | 80 ft | 3 kts | 94° |
| 2026-05-04 17:57 | 59.79853 | 30.26649 | 80 ft | 3 kts | 91° |
| 2026-05-04 17:57 | 59.79853 | 30.26609 | 80 ft | 3 kts | 88° |
| 2026-05-04 17:57 | 59.79852 | 30.26569 | 80 ft | 3 kts | 84° |
| 2026-05-04 17:58 | 59.79849 | 30.26530 | 80 ft | 3 kts | 79° |
| 2026-05-04 17:58 | 59.79845 | 30.26490 | 85 ft | 3 kts | 72° |
| 2026-05-04 17:58 | 59.79837 | 30.26454 | 82 ft | 3 kts | 56° |
| 2026-05-04 17:58 | 59.79825 | 30.26427 | 84 ft | 3 kts | 22° |
| 2026-05-04 17:59 | 59.79822 | 30.26424 | 80 ft | 1 kts | 17° |
| 2026-05-04 18:03 | 59.79824 | 30.26425 | 82 ft | 1 kts | 17° |
| 2026-05-04 18:04 | 59.79846 | 30.26439 | 85 ft | 4 kts | 17° |
| 2026-05-04 18:04 | 59.79886 | 30.26462 | 84 ft | 7 kts | 16° |
| 2026-05-04 18:04 | 59.80013 | 30.26537 | 82 ft | 11 kts | 17° |
| 2026-05-04 18:05 | 59.80096 | 30.26586 | 80 ft | 13 kts | 17° |
| 2026-05-04 18:05 | 59.80189 | 30.26641 | 80 ft | 15 kts | 17° |
| 2026-05-04 18:05 | 59.80289 | 30.26700 | 83 ft | 13 kts | 16° |
| 2026-05-04 18:05 | 59.80365 | 30.26744 | 83 ft | 10 kts | 16° |
| 2026-05-04 18:06 | 59.80385 | 30.26932 | 84 ft | 11 kts | 106° |
| 2026-05-04 18:06 | 59.80359 | 30.27102 | 81 ft | 15 kts | 107° |
| 2026-05-04 18:06 | 59.80328 | 30.27315 | 80 ft | 17 kts | 106° |
| 2026-05-04 18:07 | 59.80291 | 30.27561 | 84 ft | 20 kts | 107° |
| 2026-05-04 18:07 | 59.80251 | 30.27831 | 81 ft | 21 kts | 106° |
| 2026-05-04 18:07 | 59.80208 | 30.28115 | 78 ft | 22 kts | 107° |
| 2026-05-04 18:07 | 59.80166 | 30.28397 | 78 ft | 18 kts | 106° |
| 2026-05-04 18:08 | 59.80153 | 30.28541 | 74 ft | 9 kts | 76° |
| 2026-05-04 18:08 | 59.80194 | 30.28647 | 73 ft | 11 kts | 49° |
| 2026-05-04 18:08 | 59.80248 | 30.28770 | 66 ft | 13 kts | 49° |
| 2026-05-04 18:08 | 59.80296 | 30.28879 | 69 ft | 7 kts | 49° |
| 2026-05-04 18:09 | 59.80328 | 30.28851 | 69 ft | 4 kts | 289° |
| 2026-05-04 18:09 | 59.80335 | 30.28807 | 76 ft | 5 kts | 287° |
| 2026-05-04 18:10 | 59.80411 | 30.28308 | 74 ft | 73 kts | 287° |
| 2026-05-04 18:10 | 59.80619 | 30.26922 | 81 ft | 134 kts | 287° |
| 2026-05-04 18:10 | 59.80935 | 30.24836 | 205 ft | 173 kts | 287° |
| 2026-05-04 18:10 | 59.81279 | 30.22543 | 940 ft | 174 kts | 287° |
| 2026-05-04 18:11 | 59.81623 | 30.20218 | 1720 ft | 178 kts | 287° |
| 2026-05-04 18:11 | 59.81964 | 30.17872 | 2603 ft | 174 kts | 287° |
| 2026-05-04 18:11 | 59.82305 | 30.15614 | 3528 ft | 170 kts | 286° |
| 2026-05-04 18:11 | 59.82655 | 30.13203 | 3931 ft | 195 kts | 284° |
| 2026-05-04 18:12 | 59.83054 | 30.10438 | 4159 ft | 219 kts | 285° |
| 2026-05-04 18:12 | 59.83502 | 30.07464 | 4667 ft | 228 kts | 285° |
| 2026-05-04 18:12 | 59.83973 | 30.04421 | 5414 ft | 231 kts | 283° |
| 2026-05-04 18:12 | 59.84056 | 30.01289 | 6282 ft | 227 kts | 253° |
| 2026-05-04 18:13 | 59.83440 | 29.98425 | 7150 ft | 227 kts | 238° |
| 2026-05-04 18:13 | 59.82246 | 29.96367 | 7861 ft | 236 kts | 206° |
| 2026-05-04 18:13 | 59.79049 | 29.94367 | 9360 ft | 245 kts | 200° |
| 2026-05-04 18:14 | 59.77394 | 29.93439 | 10108 ft | 248 kts | 200° |
| 2026-05-04 18:14 | 59.75685 | 29.92823 | 10818 ft | 257 kts | 181° |
| 2026-05-04 18:14 | 59.73938 | 29.93850 | 11519 ft | 272 kts | 154° |
| 2026-05-04 18:15 | 59.71751 | 30.00648 | 12072 ft | 331 kts | 108° |
| 2026-05-04 18:15 | 59.70481 | 30.10062 | 12476 ft | 374 kts | 108° |
| 2026-05-04 18:15 | 59.69768 | 30.15084 | 12996 ft | 383 kts | 107° |
| 2026-05-04 18:16 | 59.69427 | 30.20345 | 13713 ft | 388 kts | 92° |
| 2026-05-04 18:16 | 59.69426 | 30.25698 | 14455 ft | 391 kts | 92° |
| 2026-05-04 18:16 | 59.69387 | 30.31105 | 15099 ft | 395 kts | 93° |
| 2026-05-04 18:17 | 59.68692 | 30.41918 | 16383 ft | 398 kts | 105° |
| 2026-05-04 18:17 | 59.68053 | 30.47261 | 17021 ft | 401 kts | 106° |
| 2026-05-04 18:17 | 59.66779 | 30.58099 | 18201 ft | 408 kts | 105° |
| 2026-05-04 18:18 | 59.66177 | 30.63606 | 18784 ft | 411 kts | 104° |
| 2026-05-04 18:18 | 59.65587 | 30.69088 | 19356 ft | 414 kts | 104° |
| 2026-05-04 18:18 | 59.65043 | 30.74705 | 19897 ft | 418 kts | 102° |
| 2026-05-04 18:18 | 59.64569 | 30.80401 | 20433 ft | 421 kts | 101° |
| 2026-05-04 18:19 | 59.63663 | 30.91918 | 21462 ft | 427 kts | 101° |
| 2026-05-04 18:19 | 59.63196 | 30.97732 | 21948 ft | 430 kts | 101° |
| 2026-05-04 18:19 | 59.62715 | 31.03586 | 22430 ft | 433 kts | 102° |
| 2026-05-04 18:20 | 59.62224 | 31.09470 | 22902 ft | 435 kts | 102° |
| 2026-05-04 18:20 | 59.61723 | 31.15385 | 23345 ft | 438 kts | 102° |
| 2026-05-04 18:20 | 59.61214 | 31.21337 | 23768 ft | 441 kts | 102° |
| 2026-05-04 18:20 | 59.60698 | 31.27325 | 24199 ft | 444 kts | 102° |
| 2026-05-04 18:21 | 59.60177 | 31.33346 | 24617 ft | 446 kts | 102° |
| 2026-05-04 18:21 | 59.59650 | 31.39398 | 24991 ft | 449 kts | 102° |
| 2026-05-04 18:21 | 59.59119 | 31.45472 | 25366 ft | 451 kts | 102° |
| 2026-05-04 18:21 | 59.58581 | 31.51592 | 25751 ft | 453 kts | 102° |
| 2026-05-04 18:22 | 59.58039 | 31.57733 | 26108 ft | 456 kts | 103° |
| 2026-05-04 18:22 | 59.57489 | 31.63905 | 26463 ft | 458 kts | 103° |
| 2026-05-04 18:22 | 59.56933 | 31.70112 | 26804 ft | 460 kts | 103° |
| 2026-05-04 18:22 | 59.56372 | 31.76347 | 27134 ft | 463 kts | 103° |
| 2026-05-04 18:23 | 59.55806 | 31.82606 | 27461 ft | 465 kts | 103° |
| 2026-05-04 18:23 | 59.55235 | 31.88887 | 27785 ft | 467 kts | 103° |
| 2026-05-04 18:23 | 59.54659 | 31.95200 | 28083 ft | 469 kts | 103° |
| 2026-05-04 18:23 | 59.54077 | 32.01540 | 28380 ft | 471 kts | 103° |
| 2026-05-04 18:24 | 59.53377 | 32.07844 | 28653 ft | 470 kts | 113° |
| 2026-05-04 18:24 | 59.51901 | 32.13502 | 28906 ft | 463 kts | 130° |
| 2026-05-04 18:24 | 59.49767 | 32.18171 | 29237 ft | 457 kts | 139° |
| 2026-05-04 18:24 | 59.47488 | 32.22558 | 29524 ft | 459 kts | 140° |
| 2026-05-04 18:25 | 59.45190 | 32.26914 | 29769 ft | 461 kts | 140° |
| 2026-05-04 18:25 | 59.42881 | 32.31297 | 30062 ft | 461 kts | 140° |
| 2026-05-04 18:25 | 59.40585 | 32.35688 | 30453 ft | 459 kts | 139° |
| 2026-05-04 18:25 | 59.38308 | 32.40073 | 30839 ft | 458 kts | 139° |
| 2026-05-04 18:26 | 59.36067 | 32.44402 | 31170 ft | 457 kts | 139° |
| 2026-05-04 18:26 | 59.33803 | 32.48781 | 31431 ft | 458 kts | 139° |
| 2026-05-04 18:26 | 59.31533 | 32.53167 | 31715 ft | 458 kts | 139° |
| 2026-05-04 18:26 | 59.29265 | 32.57545 | 32061 ft | 457 kts | 139° |
| 2026-05-04 18:27 | 59.27008 | 32.61894 | 32373 ft | 456 kts | 139° |
| 2026-05-04 18:27 | 59.24744 | 32.66245 | 32632 ft | 456 kts | 139° |
| 2026-05-04 18:27 | 59.20172 | 32.74997 | 32652 ft | 463 kts | 139° |
| 2026-05-04 18:28 | 59.15592 | 32.83740 | 32613 ft | 456 kts | 139° |
| 2026-05-04 18:28 | 59.11068 | 32.92342 | 32643 ft | 456 kts | 139° |
| 2026-05-04 18:29 | 59.06493 | 33.00992 | 32964 ft | 459 kts | 139° |
| 2026-05-04 18:29 | 59.04212 | 33.05299 | 33343 ft | 456 kts | 139° |
| 2026-05-04 18:29 | 59.01942 | 33.09576 | 33680 ft | 454 kts | 139° |
| 2026-05-04 18:30 | 58.97400 | 33.18107 | 34090 ft | 456 kts | 139° |
| 2026-05-04 18:30 | 58.95118 | 33.22383 | 34278 ft | 457 kts | 139° |
| 2026-05-04 18:30 | 58.92829 | 33.26662 | 34411 ft | 458 kts | 139° |
| 2026-05-04 18:31 | 58.90538 | 33.30935 | 34546 ft | 457 kts | 139° |
| 2026-05-04 18:31 | 58.85956 | 33.39449 | 34670 ft | 457 kts | 139° |
| 2026-05-04 18:32 | 58.81376 | 33.47931 | 34686 ft | 456 kts | 139° |
| 2026-05-04 18:32 | 58.76796 | 33.56381 | 34682 ft | 455 kts | 139° |
| 2026-05-04 18:33 | 58.72218 | 33.64796 | 34686 ft | 454 kts | 139° |
| 2026-05-04 18:33 | 58.67642 | 33.73179 | 34693 ft | 454 kts | 139° |
| 2026-05-04 18:34 | 58.63060 | 33.81540 | 34697 ft | 454 kts | 139° |
| 2026-05-04 18:34 | 58.59246 | 33.88473 | 34694 ft | 454 kts | 139° |
| 2026-05-04 18:35 | 58.53878 | 33.98199 | 34707 ft | 455 kts | 139° |
| 2026-05-04 18:35 | 58.50051 | 34.05104 | 34702 ft | 456 kts | 139° |
| 2026-05-04 18:36 | 58.45429 | 34.13416 | 34711 ft | 456 kts | 139° |
| 2026-05-04 18:36 | 58.40801 | 34.21706 | 34725 ft | 457 kts | 139° |
| 2026-05-04 18:37 | 58.36158 | 34.29995 | 34751 ft | 457 kts | 139° |
| 2026-05-04 18:37 | 58.31509 | 34.38263 | 34761 ft | 458 kts | 139° |
| 2026-05-04 18:38 | 58.26846 | 34.46524 | 34752 ft | 458 kts | 139° |
| 2026-05-04 18:38 | 58.22176 | 34.54771 | 34751 ft | 459 kts | 140° |
| 2026-05-04 18:39 | 58.17437 | 34.62870 | 34746 ft | 458 kts | 142° |
| 2026-05-04 18:39 | 58.12530 | 34.70550 | 34751 ft | 457 kts | 143° |
| 2026-05-04 18:40 | 58.07612 | 34.78174 | 34755 ft | 457 kts | 143° |
| 2026-05-04 18:40 | 58.02715 | 34.85830 | 34757 ft | 457 kts | 143° |
| 2026-05-04 18:41 | 57.97827 | 34.93489 | 34758 ft | 457 kts | 142° |
| 2026-05-04 18:41 | 57.92934 | 35.01134 | 34759 ft | 457 kts | 142° |
| 2026-05-04 18:42 | 57.88037 | 35.08754 | 34760 ft | 457 kts | 142° |
| 2026-05-04 18:42 | 57.83173 | 35.16295 | 34768 ft | 457 kts | 142° |
| 2026-05-04 18:43 | 57.78269 | 35.23869 | 34767 ft | 457 kts | 142° |
| 2026-05-04 18:43 | 57.75802 | 35.27668 | 34533 ft | 461 kts | 142° |
| 2026-05-04 18:43 | 57.73325 | 35.31477 | 34282 ft | 459 kts | 142° |
| 2026-05-04 18:43 | 57.70858 | 35.35265 | 33838 ft | 458 kts | 142° |
| 2026-05-04 18:44 | 57.68399 | 35.39034 | 33273 ft | 457 kts | 142° |
| 2026-05-04 18:44 | 57.66739 | 35.41575 | 32945 ft | 455 kts | 142° |
| 2026-05-04 18:44 | 57.63521 | 35.46492 | 32366 ft | 449 kts | 143° |
| 2026-05-04 18:44 | 57.61113 | 35.50161 | 31924 ft | 445 kts | 143° |
| 2026-05-04 18:45 | 57.58725 | 35.53796 | 31491 ft | 441 kts | 143° |
| 2026-05-04 18:45 | 57.56361 | 35.57398 | 31073 ft | 437 kts | 143° |
| 2026-05-04 18:45 | 57.54011 | 35.60977 | 30630 ft | 434 kts | 143° |
| 2026-05-04 18:45 | 57.51683 | 35.64516 | 30211 ft | 430 kts | 143° |
| 2026-05-04 18:46 | 57.49374 | 35.68020 | 29792 ft | 427 kts | 143° |
| 2026-05-04 18:46 | 57.47082 | 35.71493 | 29371 ft | 424 kts | 143° |
| 2026-05-04 18:46 | 57.44802 | 35.74940 | 28941 ft | 421 kts | 143° |
| 2026-05-04 18:46 | 57.42540 | 35.78356 | 28499 ft | 417 kts | 143° |
| 2026-05-04 18:47 | 57.40298 | 35.81737 | 28082 ft | 414 kts | 143° |
| 2026-05-04 18:47 | 57.38067 | 35.85095 | 27658 ft | 411 kts | 143° |
| 2026-05-04 18:47 | 57.35854 | 35.88421 | 27242 ft | 408 kts | 143° |
| 2026-05-04 18:47 | 57.33654 | 35.91722 | 26810 ft | 406 kts | 143° |
| 2026-05-04 18:48 | 57.31471 | 35.94992 | 26387 ft | 403 kts | 143° |
| 2026-05-04 18:48 | 57.29301 | 35.98239 | 25971 ft | 400 kts | 143° |
| 2026-05-04 18:48 | 57.27143 | 36.01462 | 25553 ft | 397 kts | 143° |
| 2026-05-04 18:48 | 57.24999 | 36.04658 | 25145 ft | 395 kts | 143° |
| 2026-05-04 18:49 | 57.22867 | 36.07831 | 24728 ft | 392 kts | 143° |
| 2026-05-04 18:49 | 57.20748 | 36.10980 | 24312 ft | 390 kts | 143° |
| 2026-05-04 18:49 | 57.18643 | 36.14102 | 23903 ft | 387 kts | 143° |
| 2026-05-04 18:49 | 57.16549 | 36.17205 | 23493 ft | 385 kts | 143° |
| 2026-05-04 18:50 | 57.14466 | 36.20288 | 23034 ft | 384 kts | 143° |
| 2026-05-04 18:50 | 57.12397 | 36.23345 | 22710 ft | 379 kts | 143° |
| 2026-05-04 18:50 | 57.10341 | 36.26380 | 22290 ft | 377 kts | 143° |
| 2026-05-04 18:50 | 57.08301 | 36.29387 | 21896 ft | 375 kts | 143° |
| 2026-05-04 18:51 | 57.06271 | 36.32375 | 21492 ft | 373 kts | 143° |
| 2026-05-04 18:51 | 57.04251 | 36.35342 | 21098 ft | 371 kts | 143° |
| 2026-05-04 18:51 | 57.02241 | 36.38282 | 20703 ft | 368 kts | 143° |
| 2026-05-04 18:51 | 57.00236 | 36.41194 | 20310 ft | 366 kts | 143° |
| 2026-05-04 18:52 | 56.98247 | 36.44077 | 19918 ft | 364 kts | 143° |
| 2026-05-04 18:52 | 56.96262 | 36.46950 | 19529 ft | 362 kts | 143° |
| 2026-05-04 18:52 | 56.94291 | 36.49802 | 19138 ft | 360 kts | 143° |
| 2026-05-04 18:52 | 56.92329 | 36.52639 | 18743 ft | 358 kts | 143° |
| 2026-05-04 18:53 | 56.90376 | 36.55456 | 18355 ft | 356 kts | 143° |
| 2026-05-04 18:53 | 56.88434 | 36.58255 | 17980 ft | 354 kts | 143° |
| 2026-05-04 18:53 | 56.86508 | 36.61028 | 17638 ft | 352 kts | 143° |
| 2026-05-04 18:53 | 56.84588 | 36.63789 | 17251 ft | 351 kts | 143° |
| 2026-05-04 18:54 | 56.82672 | 36.66542 | 16861 ft | 350 kts | 143° |
| 2026-05-04 18:54 | 56.80760 | 36.69282 | 16468 ft | 350 kts | 143° |
| 2026-05-04 18:54 | 56.78850 | 36.72020 | 16070 ft | 349 kts | 143° |
| 2026-05-04 18:54 | 56.76948 | 36.74745 | 15680 ft | 348 kts | 143° |
| 2026-05-04 18:55 | 56.75047 | 36.77464 | 15292 ft | 347 kts | 143° |
| 2026-05-04 18:55 | 56.71315 | 36.82797 | 14737 ft | 338 kts | 143° |
| 2026-05-04 18:55 | 56.69482 | 36.85499 | 14376 ft | 339 kts | 142° |
| 2026-05-04 18:56 | 56.67662 | 36.88224 | 14033 ft | 340 kts | 142° |
| 2026-05-04 18:56 | 56.65837 | 36.90966 | 13684 ft | 340 kts | 142° |
| 2026-05-04 18:56 | 56.64015 | 36.93697 | 13330 ft | 339 kts | 142° |
| 2026-05-04 18:56 | 56.62200 | 36.96415 | 12980 ft | 337 kts | 142° |
| 2026-05-04 18:57 | 56.60391 | 36.99113 | 12631 ft | 336 kts | 142° |
| 2026-05-04 18:57 | 56.58590 | 37.01790 | 12283 ft | 334 kts | 142° |
| 2026-05-04 18:57 | 56.56797 | 37.04453 | 11939 ft | 332 kts | 142° |
| 2026-05-04 18:57 | 56.55014 | 37.07097 | 11593 ft | 330 kts | 142° |
| 2026-05-04 18:58 | 56.53248 | 37.09714 | 11342 ft | 325 kts | 142° |
| 2026-05-04 18:58 | 56.51505 | 37.12291 | 11032 ft | 322 kts | 142° |
| 2026-05-04 18:58 | 56.49777 | 37.14844 | 10713 ft | 319 kts | 142° |
| 2026-05-04 18:58 | 56.48067 | 37.17365 | 10393 ft | 316 kts | 142° |
| 2026-05-04 18:59 | 56.46367 | 37.19871 | 10080 ft | 314 kts | 142° |
| 2026-05-04 18:59 | 56.44689 | 37.22340 | 9926 ft | 305 kts | 142° |
| 2026-05-04 18:59 | 56.43079 | 37.24709 | 9913 ft | 293 kts | 142° |
| 2026-05-04 18:59 | 56.41481 | 37.27056 | 9270 ft | 302 kts | 142° |
| 2026-05-04 19:00 | 56.39862 | 37.29427 | 8862 ft | 298 kts | 142° |
| 2026-05-04 19:00 | 56.38268 | 37.31762 | 8549 ft | 294 kts | 142° |
| 2026-05-04 19:00 | 56.36680 | 37.34083 | 8240 ft | 293 kts | 142° |
| 2026-05-04 19:00 | 56.35097 | 37.36398 | 7932 ft | 292 kts | 142° |
| 2026-05-04 19:01 | 56.33522 | 37.38701 | 7625 ft | 291 kts | 142° |
| 2026-05-04 19:01 | 56.31952 | 37.40988 | 7323 ft | 290 kts | 142° |
| 2026-05-04 19:01 | 56.30390 | 37.43266 | 7021 ft | 288 kts | 142° |
| 2026-05-04 19:01 | 56.28842 | 37.45520 | 6721 ft | 286 kts | 142° |
| 2026-05-04 19:02 | 56.27298 | 37.47766 | 6426 ft | 284 kts | 143° |
| 2026-05-04 19:02 | 56.25784 | 37.49966 | 6140 ft | 283 kts | 142° |
| 2026-05-04 19:02 | 56.24258 | 37.52184 | 5846 ft | 282 kts | 143° |
| 2026-05-04 19:02 | 56.22736 | 37.54391 | 5558 ft | 280 kts | 143° |
| 2026-05-04 19:03 | 56.21221 | 37.56579 | 5267 ft | 278 kts | 143° |
| 2026-05-04 19:03 | 56.19705 | 37.58716 | 5034 ft | 274 kts | 149° |
| 2026-05-04 19:03 | 56.18063 | 37.60223 | 5040 ft | 258 kts | 158° |
| 2026-05-04 19:03 | 56.16435 | 37.61501 | 4843 ft | 255 kts | 158° |
| 2026-05-04 19:04 | 56.14821 | 37.62791 | 4612 ft | 252 kts | 158° |
| 2026-05-04 19:04 | 56.13234 | 37.64085 | 4392 ft | 250 kts | 158° |
| 2026-05-04 19:04 | 56.11667 | 37.65384 | 4165 ft | 247 kts | 157° |
| 2026-05-04 19:04 | 56.10121 | 37.66680 | 3961 ft | 242 kts | 157° |
| 2026-05-04 19:05 | 56.08624 | 37.67935 | 3747 ft | 233 kts | 157° |
| 2026-05-04 19:05 | 56.07174 | 37.69153 | 3514 ft | 226 kts | 157° |
| 2026-05-04 19:05 | 56.05778 | 37.70326 | 3298 ft | 217 kts | 157° |
| 2026-05-04 19:05 | 56.04439 | 37.71447 | 3095 ft | 207 kts | 160° |
| 2026-05-04 19:06 | 56.03112 | 37.71748 | 2993 ft | 185 kts | 201° |
| 2026-05-04 19:06 | 56.02177 | 37.70270 | 3021 ft | 185 kts | 244° |
| 2026-05-04 19:06 | 56.01667 | 37.68169 | 3005 ft | 184 kts | 242° |
| 2026-05-04 19:06 | 56.01068 | 37.66173 | 2996 ft | 182 kts | 246° |
| 2026-05-04 19:07 | 56.00591 | 37.64043 | 2847 ft | 187 kts | 249° |
| 2026-05-04 19:07 | 56.00230 | 37.61864 | 2607 ft | 177 kts | 256° |
| 2026-05-04 19:07 | 55.99900 | 37.59832 | 2373 ft | 166 kts | 248° |
| 2026-05-04 19:07 | 55.99581 | 37.57906 | 2182 ft | 163 kts | 255° |
| 2026-05-04 19:08 | 55.99304 | 37.55964 | 1962 ft | 160 kts | 253° |
| 2026-05-04 19:08 | 55.99036 | 37.54054 | 1743 ft | 158 kts | 255° |
| 2026-05-04 19:08 | 55.98744 | 37.52188 | 1546 ft | 159 kts | 253° |
| 2026-05-04 19:08 | 55.98443 | 37.50257 | 1332 ft | 159 kts | 255° |
| 2026-05-04 19:09 | 55.98164 | 37.48342 | 1100 ft | 160 kts | 254° |
| 2026-05-04 19:09 | 55.97883 | 37.46456 | 907 ft | 158 kts | 254° |
| 2026-05-04 19:09 | 55.97603 | 37.44575 | 690 ft | 157 kts | 254° |
| 2026-05-04 19:09 | 55.97333 | 37.42776 | 641 ft | 132 kts | 256° |
| 2026-05-04 19:10 | 55.97173 | 37.41694 | 636 ft | 45 kts | 255° |
| 2026-05-04 19:10 | 55.97134 | 37.41431 | 639 ft | 12 kts | 264° |
| 2026-05-04 19:10 | 55.97175 | 37.41342 | 639 ft | 9 kts | 342° |
| 2026-05-04 19:10 | 55.97238 | 37.41312 | 639 ft | 9 kts | 344° |
| 2026-05-04 19:11 | 55.97299 | 37.41283 | 639 ft | 9 kts | 345° |
| 2026-05-04 19:11 | 55.97358 | 37.41254 | 640 ft | 9 kts | 345° |
| 2026-05-04 19:11 | 55.97417 | 37.41225 | 642 ft | 9 kts | 345° |
| 2026-05-04 19:11 | 55.97481 | 37.41196 | 641 ft | 10 kts | 345° |
| 2026-05-04 19:12 | 55.97544 | 37.41165 | 638 ft | 9 kts | 345° |
| 2026-05-04 19:12 | 55.97632 | 37.41230 | 639 ft | 8 kts | 73° |
| 2026-05-04 19:12 | 55.97646 | 37.41323 | 638 ft | 8 kts | 75° |
| 2026-05-04 19:13 | 55.97659 | 37.41412 | 638 ft | 7 kts | 75° |
| 2026-05-04 19:13 | 55.97672 | 37.41499 | 638 ft | 7 kts | 75° |
| 2026-05-04 19:13 | 55.97684 | 37.41582 | 640 ft | 7 kts | 75° |
| 2026-05-04 19:13 | 55.97697 | 37.41665 | 640 ft | 7 kts | 75° |
| 2026-05-04 19:14 | 55.97709 | 37.41745 | 638 ft | 7 kts | 75° |
| 2026-05-04 19:14 | 55.97723 | 37.41822 | 638 ft | 7 kts | 52° |
| 2026-05-04 19:14 | 55.97766 | 37.41827 | 638 ft | 6 kts | 346° |
| 2026-05-04 19:14 | 55.97795 | 37.41814 | 638 ft | 2 kts | 346° |
| 2026-05-04 19:15 | 55.97799 | 37.41813 | 638 ft | 0 kts | 346° |